Terminal Aerodrome Forecast
Issued by NWS

Home | Current Version | Previous Version | Text Only | Print | Product List | Glossary On
Versions: 1 2 3 4 5 6 7 8 9 10 11 12 13 14 15 16 17 18 19 20 21
000
FTUS45 KABQ 012339
TAFLVS
TAF
KLVS 012339Z 0200/0224 35010KT P6SM VCSH SCT050 BKN080
     FM020900 21008KT P6SM BKN100
     FM021900 21011KT P6SM VCTS SCT040 BKN070CB
     FM022200 22011KT P6SM VCSH SCT050 BKN080=

USA.gov is the U.S. government's official web portal to all federal, state and local government web resources and services.